sensor_id;sensor_type;location;lat;lon;timestamp;pressure;altitude;pressure_sealevel;temperature;humidity
20620;BME280;10469;42.720;23.252;2022-12-24T00:02:19;94768.44;;;3.87;100.00
20620;BME280;10469;42.720;23.252;2022-12-24T00:04:45;94774.34;;;3.83;100.00
20620;BME280;10469;42.720;23.252;2022-12-24T00:07:11;94759.00;;;3.78;100.00
20620;BME280;10469;42.720;23.252;2022-12-24T00:09:36;94781.53;;;3.89;100.00
20620;BME280;10469;42.720;23.252;2022-12-24T00:12:03;94765.34;;;3.84;100.00
20620;BME280;10469;42.720;23.252;2022-12-24T00:14:29;94769.69;;;3.91;100.00
20620;BME280;10469;42.720;23.252;2022-12-24T00:16:54;94774.13;;;3.77;100.00
20620;BME280;10469;42.720;23.252;2022-12-24T00:19:20;94759.34;;;3.62;100.00
20620;BME280;10469;42.720;23.252;2022-12-24T00:21:45;94772.06;;;3.80;100.00
20620;BME280;10469;42.720;23.252;2022-12-24T00:24:10;94770.81;;;3.75;100.00
20620;BME280;10469;42.720;23.252;2022-12-24T00:26:36;94780.66;;;3.82;100.00
20620;BME280;10469;42.720;23.252;2022-12-24T00:29:01;94760.38;;;3.61;100.00
20620;BME280;10469;42.720;23.252;2022-12-24T00:31:29;94777.72;;;3.63;100.00
20620;BME280;10469;42.720;23.252;2022-12-24T00:33:54;94760.56;;;3.59;100.00
20620;BME280;10469;42.720;23.252;2022-12-24T00:36:20;94778.22;;;3.80;100.00
20620;BME280;10469;42.720;23.252;2022-12-24T00:38:46;94766.53;;;3.68;100.00
20620;BME280;10469;42.720;23.252;2022-12-24T00:41:12;94775.59;;;3.52;100.00
20620;BME280;10469;42.720;23.252;2022-12-24T00:43:59;94772.72;;;3.47;100.00
20620;BME280;10469;42.720;23.252;2022-12-24T00:46:26;94780.31;;;3.22;100.00
20620;BME280;10469;42.720;23.252;2022-12-24T00:48:52;94782.22;;;2.57;100.00
20620;BME280;10469;42.720;23.252;2022-12-24T00:51:18;94777.38;;;2.18;100.00
20620;BME280;10469;42.720;23.252;2022-12-24T00:53:44;94787.28;;;1.94;100.00
20620;BME280;10469;42.720;23.252;2022-12-24T00:56:10;94775.34;;;1.84;100.00
20620;BME280;10469;42.720;23.252;2022-12-24T00:58:35;94784.06;;;1.99;100.00
20620;BME280;10469;42.720;23.252;2022-12-24T01:01:01;94790.78;;;2.16;100.00
20620;BME280;10469;42.720;23.252;2022-12-24T01:03:27;94786.81;;;1.91;100.00
20620;BME280;10469;42.720;23.252;2022-12-24T01:06:12;94797.16;;;2.07;100.00
20620;BME280;10469;42.720;23.252;2022-12-24T01:08:38;94778.59;;;2.00;100.00
20620;BME280;10469;42.720;23.252;2022-12-24T01:11:05;94795.44;;;2.14;100.00
20620;BME280;10469;42.720;23.252;2022-12-24T01:13:32;94800.81;;;2.06;100.00
20620;BME280;10469;42.720;23.252;2022-12-24T01:15:57;94796.88;;;2.17;100.00
20620;BME280;10469;42.720;23.252;2022-12-24T01:18:23;94797.59;;;2.25;100.00
20620;BME280;10469;42.720;23.252;2022-12-24T01:21:00;94789.41;;;2.20;100.00
20620;BME280;10469;42.720;23.252;2022-12-24T01:23:25;94781.19;;;2.15;100.00
20620;BME280;10469;42.720;23.252;2022-12-24T01:25:51;94777.16;;;2.19;100.00
20620;BME280;10469;42.720;23.252;2022-12-24T01:28:17;94760.34;;;2.27;100.00
20620;BME280;10469;42.720;23.252;2022-12-24T01:30:42;94782.59;;;2.33;100.00
20620;BME280;10469;42.720;23.252;2022-12-24T01:33:08;94784.34;;;2.04;100.00
20620;BME280;10469;42.720;23.252;2022-12-24T01:35:33;94788.75;;;2.18;100.00
20620;BME280;10469;42.720;23.252;2022-12-24T01:37:59;94794.94;;;2.25;100.00
20620;BME280;10469;42.720;23.252;2022-12-24T01:40:25;94795.09;;;2.39;100.00
20620;BME280;10469;42.720;23.252;2022-12-24T01:43:20;94773.59;;;2.48;100.00
20620;BME280;10469;42.720;23.252;2022-12-24T01:53:57;94783.66;;;2.17;100.00
20620;BME280;10469;42.720;23.252;2022-12-24T01:56:25;94781.13;;;2.09;100.00
20620;BME280;10469;42.720;23.252;2022-12-24T01:58:55;94782.97;;;2.08;100.00
20620;BME280;10469;42.720;23.252;2022-12-24T02:01:22;94782.72;;;2.24;100.00
20620;BME280;10469;42.720;23.252;2022-12-24T02:03:47;94764.69;;;2.13;100.00
20620;BME280;10469;42.720;23.252;2022-12-24T02:06:14;94765.91;;;2.32;100.00
20620;BME280;10469;42.720;23.252;2022-12-24T02:08:41;94772.56;;;2.28;100.00
20620;BME280;10469;42.720;23.252;2022-12-24T02:11:12;94765.28;;;2.30;100.00
20620;BME280;10469;42.720;23.252;2022-12-24T02:13:37;94771.63;;;2.36;100.00
20620;BME280;10469;42.720;23.252;2022-12-24T02:16:45;94775.22;;;2.49;100.00
20620;BME280;10469;42.720;23.252;2022-12-24T02:28:29;94768.63;;;2.60;100.00
20620;BME280;10469;42.720;23.252;2022-12-24T02:31:38;94771.72;;;2.64;100.00
20620;BME280;10469;42.720;23.252;2022-12-24T02:34:22;94774.41;;;2.49;100.00
20620;BME280;10469;42.720;23.252;2022-12-24T02:37:07;94772.75;;;2.05;100.00
20620;BME280;10469;42.720;23.252;2022-12-24T02:42:52;94772.22;;;2.53;100.00
20620;BME280;10469;42.720;23.252;2022-12-24T02:45:24;94763.91;;;2.56;100.00
20620;BME280;10469;42.720;23.252;2022-12-24T02:47:50;94744.22;;;2.22;100.00
20620;BME280;10469;42.720;23.252;2022-12-24T02:50:17;94761.81;;;2.30;100.00
20620;BME280;10469;42.720;23.252;2022-12-24T02:52:45;94747.56;;;2.31;100.00
20620;BME280;10469;42.720;23.252;2022-12-24T02:55:11;94750.69;;;1.98;100.00
20620;BME280;10469;42.720;23.252;2022-12-24T03:00:15;94750.13;;;1.66;100.00
20620;BME280;10469;42.720;23.252;2022-12-24T03:05:33;94741.75;;;1.33;100.00
20620;BME280;10469;42.720;23.252;2022-12-24T03:13:16;94752.59;;;1.53;100.00
20620;BME280;10469;42.720;23.252;2022-12-24T03:15:44;94754.50;;;1.59;100.00
20620;BME280;10469;42.720;23.252;2022-12-24T03:18:12;94757.06;;;1.53;100.00
20620;BME280;10469;42.720;23.252;2022-12-24T03:20:48;94741.50;;;1.43;100.00
20620;BME280;10469;42.720;23.252;2022-12-24T03:23:14;94757.53;;;1.56;100.00
20620;BME280;10469;42.720;23.252;2022-12-24T03:25:41;94744.47;;;1.55;100.00
20620;BME280;10469;42.720;23.252;2022-12-24T03:28:09;94706.59;;;1.33;100.00
20620;BME280;10469;42.720;23.252;2022-12-24T03:30:39;94760.53;;;1.53;100.00
20620;BME280;10469;42.720;23.252;2022-12-24T03:33:05;94760.44;;;1.61;100.00
20620;BME280;10469;42.720;23.252;2022-12-24T03:35:31;94754.78;;;1.64;100.00
20620;BME280;10469;42.720;23.252;2022-12-24T03:37:56;94744.56;;;1.61;100.00
20620;BME280;10469;42.720;23.252;2022-12-24T03:40:22;94753.59;;;1.52;100.00
20620;BME280;10469;42.720;23.252;2022-12-24T03:42:47;94766.00;;;1.52;100.00
20620;BME280;10469;42.720;23.252;2022-12-24T03:45:13;94754.94;;;1.63;100.00
20620;BME280;10469;42.720;23.252;2022-12-24T03:47:38;94765.06;;;1.59;100.00
20620;BME280;10469;42.720;23.252;2022-12-24T03:50:05;94768.16;;;1.63;100.00
20620;BME280;10469;42.720;23.252;2022-12-24T03:52:30;94766.69;;;1.75;100.00
20620;BME280;10469;42.720;23.252;2022-12-24T03:54:56;94763.78;;;1.70;100.00
20620;BME280;10469;42.720;23.252;2022-12-24T03:57:21;94767.97;;;1.79;100.00
20620;BME280;10469;42.720;23.252;2022-12-24T03:59:46;94764.06;;;1.75;100.00
20620;BME280;10469;42.720;23.252;2022-12-24T04:02:12;94779.81;;;1.68;100.00
20620;BME280;10469;42.720;23.252;2022-12-24T04:04:37;94778.03;;;1.69;100.00
20620;BME280;10469;42.720;23.252;2022-12-24T04:07:03;94779.66;;;1.55;100.00
20620;BME280;10469;42.720;23.252;2022-12-24T04:09:29;94775.63;;;1.59;100.00
20620;BME280;10469;42.720;23.252;2022-12-24T04:11:55;94787.69;;;1.62;100.00
20620;BME280;10469;42.720;23.252;2022-12-24T04:14:20;94782.94;;;1.42;100.00
20620;BME280;10469;42.720;23.252;2022-12-24T04:16:45;94789.88;;;1.43;100.00
20620;BME280;10469;42.720;23.252;2022-12-24T04:19:11;94783.56;;;1.59;100.00
20620;BME280;10469;42.720;23.252;2022-12-24T04:21:36;94771.38;;;1.43;100.00
20620;BME280;10469;42.720;23.252;2022-12-24T04:24:02;94775.47;;;1.46;100.00
20620;BME280;10469;42.720;23.252;2022-12-24T04:26:27;94796.97;;;1.58;100.00
20620;BME280;10469;42.720;23.252;2022-12-24T04:28:53;94796.44;;;1.47;100.00
20620;BME280;10469;42.720;23.252;2022-12-24T04:31:18;94807.25;;;1.67;100.00
20620;BME280;10469;42.720;23.252;2022-12-24T04:33:44;94805.72;;;1.73;100.00
20620;BME280;10469;42.720;23.252;2022-12-24T04:36:13;94800.50;;;1.80;100.00
20620;BME280;10469;42.720;23.252;2022-12-24T04:38:39;94793.59;;;1.79;100.00
20620;BME280;10469;42.720;23.252;2022-12-24T04:41:14;94812.63;;;2.04;100.00
20620;BME280;10469;42.720;23.252;2022-12-24T04:43:40;94811.16;;;2.01;100.00
20620;BME280;10469;42.720;23.252;2022-12-24T04:46:07;94781.09;;;1.72;100.00
20620;BME280;10469;42.720;23.252;2022-12-24T04:48:34;94799.41;;;1.00;100.00
20620;BME280;10469;42.720;23.252;2022-12-24T04:51:04;94783.59;;;1.30;100.00
20620;BME280;10469;42.720;23.252;2022-12-24T04:53:30;94798.44;;;1.31;100.00
20620;BME280;10469;42.720;23.252;2022-12-24T04:55:56;94791.03;;;1.11;100.00
20620;BME280;10469;42.720;23.252;2022-12-24T04:58:22;94794.31;;;1.13;100.00
20620;BME280;10469;42.720;23.252;2022-12-24T05:00:48;94789.16;;;1.35;100.00
20620;BME280;10469;42.720;23.252;2022-12-24T05:03:13;94784.31;;;1.38;100.00
20620;BME280;10469;42.720;23.252;2022-12-24T05:05:39;94794.69;;;1.55;100.00
20620;BME280;10469;42.720;23.252;2022-12-24T05:08:04;94792.97;;;1.62;100.00
20620;BME280;10469;42.720;23.252;2022-12-24T05:10:31;94767.81;;;1.07;100.00
20620;BME280;10469;42.720;23.252;2022-12-24T05:12:56;94768.19;;;1.18;100.00
20620;BME280;10469;42.720;23.252;2022-12-24T05:15:22;94773.97;;;0.99;100.00
20620;BME280;10469;42.720;23.252;2022-12-24T05:17:47;94770.28;;;1.08;100.00
20620;BME280;10469;42.720;23.252;2022-12-24T05:20:13;94772.88;;;0.79;100.00
20620;BME280;10469;42.720;23.252;2022-12-24T05:22:38;94771.06;;;0.94;100.00
20620;BME280;10469;42.720;23.252;2022-12-24T05:25:22;94776.78;;;0.83;100.00
20620;BME280;10469;42.720;23.252;2022-12-24T05:28:06;94778.28;;;0.62;100.00
20620;BME280;10469;42.720;23.252;2022-12-24T05:30:31;94793.34;;;0.54;100.00
20620;BME280;10469;42.720;23.252;2022-12-24T05:32:57;94780.41;;;0.44;100.00
20620;BME280;10469;42.720;23.252;2022-12-24T05:35:22;94779.50;;;0.52;100.00
20620;BME280;10469;42.720;23.252;2022-12-24T05:37:48;94770.25;;;0.56;100.00
20620;BME280;10469;42.720;23.252;2022-12-24T05:40:13;94775.19;;;0.36;100.00
20620;BME280;10469;42.720;23.252;2022-12-24T05:42:39;94787.66;;;0.42;100.00
20620;BME280;10469;42.720;23.252;2022-12-24T05:45:05;94773.66;;;0.41;100.00
20620;BME280;10469;42.720;23.252;2022-12-24T05:47:30;94764.53;;;0.52;100.00
20620;BME280;10469;42.720;23.252;2022-12-24T05:49:56;94769.09;;;0.58;100.00
20620;BME280;10469;42.720;23.252;2022-12-24T05:52:21;94763.38;;;0.69;100.00
20620;BME280;10469;42.720;23.252;2022-12-24T05:54:46;94777.22;;;0.86;100.00
20620;BME280;10469;42.720;23.252;2022-12-24T05:57:12;94780.22;;;1.21;100.00
20620;BME280;10469;42.720;23.252;2022-12-24T05:59:38;94776.03;;;1.27;100.00
20620;BME280;10469;42.720;23.252;2022-12-24T06:02:03;94769.63;;;1.50;100.00
20620;BME280;10469;42.720;23.252;2022-12-24T06:04:29;94791.13;;;1.77;100.00
20620;BME280;10469;42.720;23.252;2022-12-24T06:06:54;94771.41;;;1.94;100.00
20620;BME280;10469;42.720;23.252;2022-12-24T06:09:19;94786.81;;;1.91;100.00
20620;BME280;10469;42.720;23.252;2022-12-24T06:11:45;94784.38;;;2.25;100.00
20620;BME280;10469;42.720;23.252;2022-12-24T06:14:10;94797.38;;;3.13;100.00
20620;BME280;10469;42.720;23.252;2022-12-24T06:16:36;94782.09;;;3.49;100.00
20620;BME280;10469;42.720;23.252;2022-12-24T06:19:01;94786.00;;;3.47;100.00
20620;BME280;10469;42.720;23.252;2022-12-24T06:21:27;94775.38;;;3.88;100.00
20620;BME280;10469;42.720;23.252;2022-12-24T06:23:52;94777.44;;;4.54;100.00
20620;BME280;10469;42.720;23.252;2022-12-24T06:26:20;94786.09;;;6.07;100.00
20620;BME280;10469;42.720;23.252;2022-12-24T06:28:46;94779.00;;;6.39;100.00
20620;BME280;10469;42.720;23.252;2022-12-24T06:31:14;94765.00;;;7.57;100.00
20620;BME280;10469;42.720;23.252;2022-12-24T06:33:40;94772.75;;;7.15;100.00
20620;BME280;10469;42.720;23.252;2022-12-24T06:36:07;94775.97;;;5.64;100.00
20620;BME280;10469;42.720;23.252;2022-12-24T06:38:33;94786.66;;;5.18;100.00
20620;BME280;10469;42.720;23.252;2022-12-24T06:40:58;94787.06;;;4.68;100.00
20620;BME280;10469;42.720;23.252;2022-12-24T06:43:24;94802.44;;;3.70;100.00
20620;BME280;10469;42.720;23.252;2022-12-24T06:45:49;94807.03;;;3.55;100.00
20620;BME280;10469;42.720;23.252;2022-12-24T06:48:17;94809.59;;;3.14;100.00
20620;BME280;10469;42.720;23.252;2022-12-24T06:50:43;94798.28;;;3.26;100.00
20620;BME280;10469;42.720;23.252;2022-12-24T06:53:09;94808.22;;;2.68;100.00
20620;BME280;10469;42.720;23.252;2022-12-24T06:55:34;94797.56;;;3.39;100.00
20620;BME280;10469;42.720;23.252;2022-12-24T06:58:00;94800.16;;;4.96;100.00
20620;BME280;10469;42.720;23.252;2022-12-24T07:00:25;94779.53;;;7.61;100.00
20620;BME280;10469;42.720;23.252;2022-12-24T07:02:50;94790.72;;;8.92;100.00
20620;BME280;10469;42.720;23.252;2022-12-24T07:05:16;94791.91;;;8.96;100.00
20620;BME280;10469;42.720;23.252;2022-12-24T07:07:43;94792.81;;;10.02;100.00
20620;BME280;10469;42.720;23.252;2022-12-24T07:10:14;94783.69;;;10.15;100.00
20620;BME280;10469;42.720;23.252;2022-12-24T07:12:39;94792.66;;;10.20;100.00
20620;BME280;10469;42.720;23.252;2022-12-24T07:15:05;94796.19;;;9.62;100.00
20620;BME280;10469;42.720;23.252;2022-12-24T07:17:31;94787.00;;;9.82;100.00
20620;BME280;10469;42.720;23.252;2022-12-24T07:19:56;94784.28;;;8.33;100.00
20620;BME280;10469;42.720;23.252;2022-12-24T07:22:22;94800.72;;;7.06;100.00
20620;BME280;10469;42.720;23.252;2022-12-24T07:24:47;94782.03;;;5.98;100.00
20620;BME280;10469;42.720;23.252;2022-12-24T07:27:13;94794.75;;;5.83;100.00
20620;BME280;10469;42.720;23.252;2022-12-24T07:29:38;94805.91;;;6.24;100.00
20620;BME280;10469;42.720;23.252;2022-12-24T07:32:05;94813.16;;;5.91;100.00
20620;BME280;10469;42.720;23.252;2022-12-24T07:34:30;94825.50;;;5.45;100.00
20620;BME280;10469;42.720;23.252;2022-12-24T07:36:56;94820.59;;;5.56;100.00
20620;BME280;10469;42.720;23.252;2022-12-24T07:39:22;94785.47;;;6.18;100.00
20620;BME280;10469;42.720;23.252;2022-12-24T07:41:47;94806.28;;;6.28;100.00
20620;BME280;10469;42.720;23.252;2022-12-24T07:44:15;94806.19;;;6.03;100.00
20620;BME280;10469;42.720;23.252;2022-12-24T07:46:40;94785.44;;;5.20;100.00
20620;BME280;10469;42.720;23.252;2022-12-24T07:49:06;94832.53;;;6.24;100.00
20620;BME280;10469;42.720;23.252;2022-12-24T07:51:32;94822.31;;;6.66;100.00
20620;BME280;10469;42.720;23.252;2022-12-24T07:53:57;94821.06;;;6.31;100.00
20620;BME280;10469;42.720;23.252;2022-12-24T07:56:23;94833.44;;;6.57;100.00
20620;BME280;10469;42.720;23.252;2022-12-24T07:58:51;94826.00;;;8.15;100.00
20620;BME280;10469;42.720;23.252;2022-12-24T08:01:17;94812.69;;;7.47;100.00
20620;BME280;10469;42.720;23.252;2022-12-24T08:03:43;94840.22;;;7.47;100.00
20620;BME280;10469;42.720;23.252;2022-12-24T08:06:09;94847.16;;;6.02;100.00
20620;BME280;10469;42.720;23.252;2022-12-24T08:08:35;94842.66;;;5.69;100.00
20620;BME280;10469;42.720;23.252;2022-12-24T08:11:03;94842.88;;;5.48;100.00
20620;BME280;10469;42.720;23.252;2022-12-24T08:13:29;94848.41;;;5.73;100.00
20620;BME280;10469;42.720;23.252;2022-12-24T08:15:55;94840.19;;;6.01;100.00
20620;BME280;10469;42.720;23.252;2022-12-24T08:18:20;94835.09;;;5.60;100.00
20620;BME280;10469;42.720;23.252;2022-12-24T08:20:46;94828.34;;;5.84;100.00
20620;BME280;10469;42.720;23.252;2022-12-24T08:23:11;94841.03;;;5.75;100.00
20620;BME280;10469;42.720;23.252;2022-12-24T08:25:41;94832.00;;;5.83;100.00
20620;BME280;10469;42.720;23.252;2022-12-24T08:28:07;94835.91;;;5.80;100.00
20620;BME280;10469;42.720;23.252;2022-12-24T08:30:32;94841.47;;;5.45;100.00
20620;BME280;10469;42.720;23.252;2022-12-24T08:32:58;94829.38;;;5.56;100.00
20620;BME280;10469;42.720;23.252;2022-12-24T08:35:24;94804.63;;;5.62;100.00
20620;BME280;10469;42.720;23.252;2022-12-24T08:37:49;94801.94;;;5.75;100.00
20620;BME280;10469;42.720;23.252;2022-12-24T08:40:14;94827.16;;;5.53;100.00
20620;BME280;10469;42.720;23.252;2022-12-24T08:42:40;94836.38;;;5.37;100.00
20620;BME280;10469;42.720;23.252;2022-12-24T08:45:06;94851.69;;;5.42;100.00
20620;BME280;10469;42.720;23.252;2022-12-24T08:47:31;94851.41;;;4.70;100.00
20620;BME280;10469;42.720;23.252;2022-12-24T08:49:57;94845.44;;;4.62;100.00
20620;BME280;10469;42.720;23.252;2022-12-24T08:52:22;94831.88;;;4.30;100.00
20620;BME280;10469;42.720;23.252;2022-12-24T08:54:48;94850.88;;;4.34;100.00
20620;BME280;10469;42.720;23.252;2022-12-24T08:57:13;94848.31;;;4.60;100.00
20620;BME280;10469;42.720;23.252;2022-12-24T08:59:40;94847.16;;;4.89;100.00
20620;BME280;10469;42.720;23.252;2022-12-24T09:02:07;94811.50;;;4.37;100.00
20620;BME280;10469;42.720;23.252;2022-12-24T09:04:32;94841.25;;;5.14;100.00
20620;BME280;10469;42.720;23.252;2022-12-24T09:06:58;94842.69;;;5.43;100.00
20620;BME280;10469;42.720;23.252;2022-12-24T09:09:23;94843.25;;;6.05;100.00
20620;BME280;10469;42.720;23.252;2022-12-24T09:11:49;94843.09;;;5.60;100.00
20620;BME280;10469;42.720;23.252;2022-12-24T09:14:14;94848.41;;;5.26;100.00
20620;BME280;10469;42.720;23.252;2022-12-24T09:16:39;94847.59;;;5.19;100.00
20620;BME280;10469;42.720;23.252;2022-12-24T09:19:05;94824.09;;;5.03;100.00
20620;BME280;10469;42.720;23.252;2022-12-24T09:21:30;94816.09;;;5.03;100.00
20620;BME280;10469;42.720;23.252;2022-12-24T09:23:56;94819.41;;;5.32;100.00
20620;BME280;10469;42.720;23.252;2022-12-24T09:26:25;94830.00;;;5.05;100.00
20620;BME280;10469;42.720;23.252;2022-12-24T09:28:52;94822.66;;;5.20;100.00
20620;BME280;10469;42.720;23.252;2022-12-24T09:31:18;94834.94;;;5.01;100.00
20620;BME280;10469;42.720;23.252;2022-12-24T09:33:45;94848.38;;;4.87;100.00
20620;BME280;10469;42.720;23.252;2022-12-24T09:36:12;94815.09;;;5.17;100.00
20620;BME280;10469;42.720;23.252;2022-12-24T09:38:38;94823.47;;;5.54;100.00
20620;BME280;10469;42.720;23.252;2022-12-24T09:44:13;94783.16;;;5.44;100.00
20620;BME280;10469;42.720;23.252;2022-12-24T09:46:44;94801.25;;;6.07;100.00
20620;BME280;10469;42.720;23.252;2022-12-24T09:49:21;94810.13;;;6.39;100.00
20620;BME280;10469;42.720;23.252;2022-12-24T09:52:10;94810.19;;;6.25;100.00
20620;BME280;10469;42.720;23.252;2022-12-24T09:54:40;94799.47;;;6.39;100.00
20620;BME280;10469;42.720;23.252;2022-12-24T09:57:22;94811.81;;;6.33;100.00
20620;BME280;10469;42.720;23.252;2022-12-24T09:59:50;94807.94;;;6.29;100.00
20620;BME280;10469;42.720;23.252;2022-12-24T10:02:17;94822.09;;;6.16;100.00
20620;BME280;10469;42.720;23.252;2022-12-24T10:04:44;94824.94;;;6.21;100.00
20620;BME280;10469;42.720;23.252;2022-12-24T10:07:36;94834.47;;;5.84;100.00
20620;BME280;10469;42.720;23.252;2022-12-24T10:23:10;94798.53;;;6.26;100.00
20620;BME280;10469;42.720;23.252;2022-12-24T10:25:51;94805.25;;;6.29;100.00
20620;BME280;10469;42.720;23.252;2022-12-24T10:28:22;94801.59;;;7.50;100.00
20620;BME280;10469;42.720;23.252;2022-12-24T10:30:54;94805.16;;;7.44;100.00
20620;BME280;10469;42.720;23.252;2022-12-24T10:33:32;94799.66;;;7.14;100.00
20620;BME280;10469;42.720;23.252;2022-12-24T10:36:02;94794.16;;;7.09;100.00
20620;BME280;10469;42.720;23.252;2022-12-24T10:38:29;94774.50;;;6.71;100.00
20620;BME280;10469;42.720;23.252;2022-12-24T10:40:58;94767.84;;;7.37;100.00
20620;BME280;10469;42.720;23.252;2022-12-24T10:43:27;94792.22;;;7.84;100.00
20620;BME280;10469;42.720;23.252;2022-12-24T10:46:06;94766.13;;;6.68;100.00
20620;BME280;10469;42.720;23.252;2022-12-24T10:48:39;94791.78;;;6.62;100.00
20620;BME280;10469;42.720;23.252;2022-12-24T10:51:17;94797.25;;;6.74;100.00
20620;BME280;10469;42.720;23.252;2022-12-24T10:53:48;94768.38;;;6.71;100.00
20620;BME280;10469;42.720;23.252;2022-12-24T10:56:16;94771.47;;;6.29;100.00
20620;BME280;10469;42.720;23.252;2022-12-24T10:58:44;94802.53;;;6.49;100.00
20620;BME280;10469;42.720;23.252;2022-12-24T11:01:11;94790.59;;;6.13;100.00
20620;BME280;10469;42.720;23.252;2022-12-24T11:03:39;94805.91;;;6.69;100.00
20620;BME280;10469;42.720;23.252;2022-12-24T11:06:14;94799.84;;;6.49;100.00
20620;BME280;10469;42.720;23.252;2022-12-24T11:08:45;94802.31;;;6.82;100.00
20620;BME280;10469;42.720;23.252;2022-12-24T11:13:38;94777.59;;;7.25;100.00
20620;BME280;10469;42.720;23.252;2022-12-24T11:18:52;94786.72;;;7.61;100.00
20620;BME280;10469;42.720;23.252;2022-12-24T11:21:29;94784.88;;;7.79;100.00
20620;BME280;10469;42.720;23.252;2022-12-24T11:23:58;94788.00;;;8.32;100.00
20620;BME280;10469;42.720;23.252;2022-12-24T11:26:27;94788.22;;;8.48;100.00
20620;BME280;10469;42.720;23.252;2022-12-24T11:29:26;94784.09;;;8.94;100.00
20620;BME280;10469;42.720;23.252;2022-12-24T11:32:09;94788.97;;;9.98;100.00
20620;BME280;10469;42.720;23.252;2022-12-24T11:34:42;94775.53;;;10.90;100.00
20620;BME280;10469;42.720;23.252;2022-12-24T11:37:23;94774.56;;;11.42;100.00
20620;BME280;10469;42.720;23.252;2022-12-24T11:39:54;94758.88;;;10.88;100.00
20620;BME280;10469;42.720;23.252;2022-12-24T11:44:50;94756.97;;;10.43;100.00
20620;BME280;10469;42.720;23.252;2022-12-24T11:47:16;94765.53;;;10.28;100.00
20620;BME280;10469;42.720;23.252;2022-12-24T11:49:41;94770.75;;;10.23;100.00
20620;BME280;10469;42.720;23.252;2022-12-24T11:57:24;94753.19;;;10.04;100.00
20620;BME280;10469;42.720;23.252;2022-12-24T11:59:53;94756.84;;;9.74;100.00
20620;BME280;10469;42.720;23.252;2022-12-24T12:02:26;94728.09;;;10.34;100.00
20620;BME280;10469;42.720;23.252;2022-12-24T12:05:07;94737.31;;;10.14;100.00
20620;BME280;10469;42.720;23.252;2022-12-24T12:07:36;94743.19;;;10.80;100.00
20620;BME280;10469;42.720;23.252;2022-12-24T12:12:36;94750.03;;;11.21;100.00
20620;BME280;10469;42.720;23.252;2022-12-24T12:17:50;94750.03;;;10.59;100.00
20620;BME280;10469;42.720;23.252;2022-12-24T12:22:59;94773.22;;;9.19;100.00
20620;BME280;10469;42.720;23.252;2022-12-24T12:25:36;94741.00;;;9.73;100.00
20620;BME280;10469;42.720;23.252;2022-12-24T12:28:07;94756.03;;;9.86;100.00
20620;BME280;10469;42.720;23.252;2022-12-24T12:30:38;94749.50;;;9.82;100.00
20620;BME280;10469;42.720;23.252;2022-12-24T12:33:27;94759.94;;;10.07;100.00
20620;BME280;10469;42.720;23.252;2022-12-24T12:35:59;94739.91;;;10.09;100.00
20620;BME280;10469;42.720;23.252;2022-12-24T12:38:26;94756.66;;;10.16;100.00
20620;BME280;10469;42.720;23.252;2022-12-24T12:46:51;94760.53;;;9.15;100.00
20620;BME280;10469;42.720;23.252;2022-12-24T12:57:41;94776.47;;;9.10;100.00
20620;BME280;10469;42.720;23.252;2022-12-24T13:00:11;94784.50;;;8.79;100.00
20620;BME280;10469;42.720;23.252;2022-12-24T13:08:41;94791.09;;;8.28;100.00
20620;BME280;10469;42.720;23.252;2022-12-24T13:11:45;94787.72;;;8.21;100.00
20620;BME280;10469;42.720;23.252;2022-12-24T13:14:20;94798.47;;;8.15;100.00
20620;BME280;10469;42.720;23.252;2022-12-24T13:17:24;94801.94;;;8.15;100.00
20620;BME280;10469;42.720;23.252;2022-12-24T13:23:32;94801.81;;;8.47;100.00
20620;BME280;10469;42.720;23.252;2022-12-24T13:25:44;94802.72;;;8.41;100.00
20620;BME280;10469;42.720;23.252;2022-12-24T13:30:40;94823.13;;;8.17;100.00
20620;BME280;10469;42.720;23.252;2022-12-24T13:33:10;94814.78;;;8.07;100.00
20620;BME280;10469;42.720;23.252;2022-12-24T13:35:37;94816.22;;;8.09;100.00
20620;BME280;10469;42.720;23.252;2022-12-24T13:40:51;94806.56;;;8.08;100.00
20620;BME280;10469;42.720;23.252;2022-12-24T13:43:17;94817.41;;;8.13;100.00
20620;BME280;10469;42.720;23.252;2022-12-24T13:45:45;94829.72;;;8.14;100.00
20620;BME280;10469;42.720;23.252;2022-12-24T13:50:42;94834.84;;;8.34;100.00
20620;BME280;10469;42.720;23.252;2022-12-24T13:58:29;94823.19;;;8.47;100.00
20620;BME280;10469;42.720;23.252;2022-12-24T14:00:57;94827.56;;;8.41;100.00
20620;BME280;10469;42.720;23.252;2022-12-24T14:03:25;94826.38;;;8.56;100.00
20620;BME280;10469;42.720;23.252;2022-12-24T14:06:19;94825.09;;;8.58;100.00
20620;BME280;10469;42.720;23.252;2022-12-24T14:08:49;94837.56;;;8.46;100.00
20620;BME280;10469;42.720;23.252;2022-12-24T14:11:25;94834.75;;;8.22;100.00
20620;BME280;10469;42.720;23.252;2022-12-24T14:14:18;94842.97;;;8.02;100.00
20620;BME280;10469;42.720;23.252;2022-12-24T14:16:51;94851.75;;;7.66;100.00
20620;BME280;10469;42.720;23.252;2022-12-24T14:19:23;94855.00;;;7.68;100.00
20620;BME280;10469;42.720;23.252;2022-12-24T14:21:56;94855.66;;;7.64;100.00
20620;BME280;10469;42.720;23.252;2022-12-24T14:24:30;94844.91;;;7.95;100.00
20620;BME280;10469;42.720;23.252;2022-12-24T14:27:04;94858.63;;;7.99;100.00
20620;BME280;10469;42.720;23.252;2022-12-24T14:29:33;94835.28;;;8.13;100.00
20620;BME280;10469;42.720;23.252;2022-12-24T14:32:01;94844.41;;;8.23;100.00
20620;BME280;10469;42.720;23.252;2022-12-24T15:52:38;94906.34;;;8.39;100.00
20620;BME280;10469;42.720;23.252;2022-12-24T15:55:24;94930.16;;;8.40;100.00
20620;BME280;10469;42.720;23.252;2022-12-24T15:57:50;94929.47;;;8.45;100.00
20620;BME280;10469;42.720;23.252;2022-12-24T16:00:23;94944.94;;;8.61;100.00
20620;BME280;10469;42.720;23.252;2022-12-24T16:02:51;94944.78;;;8.56;100.00